Von / Nach
Hinflug - Rückflug
Erwachsene / Kinder
Promocode
Nächste Ankünfte Flughafen St.Gallen-Altenrhein

ZeitErw.vonFlugInfo
09:1009:10WienPE101
gelandet
17:3517:35WienPE105
planmässig
20:5520:55WienPE107
planmässig
Nächste Abflüge Flughafen St.Gallen-Altenrhein

ZeitGeplantnachFlugInfo
06:3006:30WienPE100
abgeflogen
09:5009:50WienPE102
abgeflogen
18:1518:15WienPE106
planmässig

Flugplan

Bitte wählen Sie Ihren gewünschten Abflug- und Zielflughafen aus.


Live aus Altenrhein
LIVE
LSZR 261250Z 30007KT 9999 FEW060 06/M04 Q1029 NOSIG RMK I
Zeitraffer heute
2019-03-26 00:14:02
LSZR 252250Z AUTO VRB01KT 9999 FEW039 BKN050 OVC070 03/M00 Q1025
Zeitraffer gestern
2019-03-25 00:13:50
LSZR 242250Z AUTO VRB01KT 6000 FEW060 08/05 Q1022

Wien

Samstags-Special: Altenrhein-Wien für EUR 89.-.

 

Jetzt buchen

Menorca

Ab EUR 299.- hin & zurück.

 

Jetzt buchen

Kalabrien

Ab EUR 329.- hin & zurück.

 

Jetzt buchen

Ibiza

Ab EUR 279.- hin & zurück.

 

Jetzt buchen

Mallorca

Ab EUR 349.- hin & zurück.

 

Jetzt buchen

General Aviation

Business & General Aviation LSZR.

 

More information

 

 Shuttlebus


Nutzen Sie unseren

Shuttlebus zwischen Altenrhein

und Dornbirn & Bregenz.

 

Mehr dazu

 

People's Online-Shop


Von der Überraschung an

Bord über Badetücher bis

zum Flugzeugmodell.

 

Mehr dazu


News


Aktuelles von People's

und dem Flughafen

St.Gallen-Altenrhein.

 

Mehr dazu

 

Ad-hoc Charter


Chartern Sie eine unserer

Embraer170 für Ihren eigenen

Anlass oder ACMI-Einsätze.


Mehr dazu

  

 

Teile dein People's-Erlebnis mit uns:

 

#peoplesairline bei Instagram